WEATHER

Warnervale Skycam

North West View

North West View

South West View

South West View

Sydney Airport Forecast

  • YSSY TAF

    TAF YSSY 291735Z 2918/0100 29008KT 9999 FEW030 FM292300 03012KT 9999 FEW035 FM300600 36015KT 9999 -SHRA FEW030 BKN080 FM301800 29008KT CAVOK RMK T 13 15 19 20 Q 1019 1020 1019 1016

  • YSSY METAR

    TTF METAR YSSY 292200Z 32007KT 9999 FEW040 SCT205 BKN300 17/10 Q1020 RMK RF00.0/000.0 NOSIG

All information provided on this page is for general information and should NOT be used for flight planning.